Time,TemperatureF,DewpointF,PressureIn,WindDirection,WindDirectionDegrees,WindSpeedMPH,WindSpeedGustMPH,Humidity,HourlyPrecipIn,Conditions,Clouds,dailyrainin,SoftwareType,DateUTC
2013-11-03 00:01:00,52.6,3.1,29.71,NW,315,0.9,0.0,13,0.00,CLR,SKC,0.00,WeatherDisplay:10.37,2013-11-03 04:01:00,
2013-11-03 00:02:00,52.6,3.1,29.71,NW,315,0.1,3.5,13,0.00,CLR,SKC,0.00,WeatherDisplay:10.37,2013-11-03 04:02:00,
2013-11-03 00:07:00,53.6,5.5,29.71,NNW,337,1.0,4.6,14,0.00,CLR,SKC,0.00,WeatherDisplay:10.37,2013-11-03 04:07:00,
2013-11-03 00:08:00,53.6,5.5,29.71,NNW,337,0.7,4.6,14,0.00,CLR,SKC,0.00,WeatherDisplay:10.37,2013-11-03 04:08:00,
2013-11-03 00:13:00,53.6,5.5,29.71,WNW,292,0.3,0.0,14,0.00,CLR,SKC,0.00,WeatherDisplay:10.37,2013-11-03 04:13:00,
2013-11-03 00:18:00,53.6,5.5,29.71,NNW,337,0.0,3.5,14,0.00,CLR,SKC,0.00,WeatherDisplay:10.37,2013-11-03 04:18:00,
2013-11-03 00:23:00,53.6,5.5,29.71,NNE,22,0.0,0.0,14,0.00,CLR,SKC,0.00,WeatherDisplay:10.37,2013-11-03 04:23:00,
2013-11-03 00:28:00,53.6,5.5,29.71,SSW,202,0.1,1.2,14,0.00,CLR,SKC,0.00,WeatherDisplay:10.37,2013-11-03 04:28:00,
2013-11-03 00:33:00,53.6,5.5,29.71,NNW,337,0.0,0.0,14,0.00,CLR,SKC,0.00,WeatherDisplay:10.37,2013-11-03 04:33:00,
2013-11-03 00:38:00,53.6,5.5,29.72,East,90,0.0,2.3,14,0.00,CLR,SKC,0.00,WeatherDisplay:10.37,2013-11-03 04:38:00,
2013-11-03 00:43:00,53.6,5.5,29.72,SSW,202,0.0,3.5,14,0.00,CLR,SKC,0.00,WeatherDisplay:10.37,2013-11-03 04:43:00,
2013-11-03 00:48:00,53.6,5.5,29.72,East,90,0.1,0.0,14,0.00,CLR,SKC,0.00,WeatherDisplay:10.37,2013-11-03 04:48:00,
2013-11-03 00:53:00,52.6,3.1,29.72,NNE,22,0.0,2.3,13,0.00,CLR,SKC,0.00,WeatherDisplay:10.37,2013-11-03 04:53:00,
2013-11-03 00:58:00,53.6,5.5,29.72,WNW,292,0.1,3.5,14,0.00,CLR,SKC,0.00,WeatherDisplay:10.37,2013-11-03 04:58:00,
2013-11-03 01:03:00,52.6,3.1,29.72,North,360,0.0,0.0,13,0.00,CLR,SKC,0.00,WeatherDisplay:10.37,2013-11-03 05:03:00,
2013-11-03 01:08:00,52.6,3.1,29.73,North,360,3.6,5.8,13,0.00,CLR,SKC,0.00,WeatherDisplay:10.37,2013-11-03 05:08:00,
2013-11-03 01:13:00,52.6,3.1,29.73,WNW,292,0.9,3.5,13,0.00,CLR,SKC,0.00,WeatherDisplay:10.37,2013-11-03 05:13:00,
2013-11-03 01:18:00,52.6,3.1,29.75,NE,45,2.5,3.0,13,0.00,CLR,SKC,0.00,WeatherDisplay:10.37,2013-11-03 05:18:00,
2013-11-03 01:23:00,52.6,3.1,29.75,NNW,337,1.5,0.0,13,0.00,CLR,SKC,0.00,WeatherDisplay:10.37,2013-11-03 05:23:00,
2013-11-03 01:28:00,52.6,3.1,29.74,NNE,22,0.4,1.2,13,0.00,CLR,SKC,0.00,WeatherDisplay:10.37,2013-11-03 05:28:00,
2013-11-03 01:33:00,52.6,3.1,29.74,NNW,337,0.0,0.0,13,0.00,CLR,SKC,0.00,WeatherDisplay:10.37,2013-11-03 05:33:00,
2013-11-03 01:38:00,52.6,3.1,29.75,NNE,22,0.0,2.3,13,0.00,CLR,SKC,0.00,WeatherDisplay:10.37,2013-11-03 05:38:00,
2013-11-03 01:43:00,52.6,3.1,29.75,NNE,22,0.2,2.3,13,0.00,CLR,SKC,0.00,WeatherDisplay:10.37,2013-11-03 05:43:00,
2013-11-03 01:48:00,52.6,3.1,29.76,NE,45,0.5,3.5,13,0.00,CLR,SKC,0.00,WeatherDisplay:10.37,2013-11-03 05:48:00,
2013-11-03 01:53:00,52.6,3.1,29.76,WNW,292,0.0,0.0,13,0.00,CLR,SKC,0.00,WeatherDisplay:10.37,2013-11-03 05:53:00,
2013-11-03 01:58:00,51.6,2.3,29.74,WNW,292,0.0,0.0,13,0.00,CLR,SKC,0.00,WeatherDisplay:10.37,2013-11-03 05:58:00,
2013-11-03 01:03:00,51.6,2.3,29.74,East,90,0.0,0.0,13,0.00,CLR,SKC,0.00,WeatherDisplay:10.37,2013-11-03 06:03:00,
2013-11-03 01:08:00,51.6,2.3,29.75,North,360,0.0,0.0,13,0.00,CLR,SKC,0.00,WeatherDisplay:10.37,2013-11-03 06:08:00,
2013-11-03 01:13:00,52.6,3.1,29.75,NNW,337,0.0,0.0,13,0.00,CLR,SKC,0.00,WeatherDisplay:10.37,2013-11-03 06:13:00,
2013-11-03 01:18:00,51.6,2.3,29.74,WNW,292,0.0,0.0,13,0.00,CLR,SKC,0.00,WeatherDisplay:10.37,2013-11-03 06:18:00,
2013-11-03 01:23:00,51.6,2.3,29.74,WSW,247,0.0,0.0,13,0.00,CLR,SKC,0.00,WeatherDisplay:10.37,2013-11-03 06:23:00,
2013-11-03 01:28:00,51.6,2.3,29.75,NW,315,0.0,0.0,13,0.00,CLR,SKC,0.00,WeatherDisplay:10.37,2013-11-03 06:28:00,
2013-11-03 01:33:00,51.6,2.3,29.75,NNW,337,0.3,2.3,13,0.00,CLR,SKC,0.00,WeatherDisplay:10.37,2013-11-03 06:33:00,
2013-11-03 01:38:00,51.6,2.3,29.74,North,360,1.0,3.5,13,0.00,CLR,SKC,0.00,WeatherDisplay:10.37,2013-11-03 06:38:00,
2013-11-03 01:43:00,51.6,2.3,29.74,WNW,292,0.6,3.5,13,0.00,CLR,SKC,0.00,WeatherDisplay:10.37,2013-11-03 06:43:00,
2013-11-03 01:48:00,51.6,2.3,29.75,NE,45,0.9,3.5,13,0.00,CLR,SKC,0.00,WeatherDisplay:10.37,2013-11-03 06:48:00,
2013-11-03 01:53:00,52.6,3.1,29.75,NNE,22,0.0,0.0,13,0.00,CLR,SKC,0.00,WeatherDisplay:10.37,2013-11-03 06:53:00,
2013-11-03 01:58:00,52.6,3.1,29.75,North,360,1.7,4.6,13,0.00,CLR,SKC,0.00,WeatherDisplay:10.37,2013-11-03 06:58:00,
2013-11-03 02:03:00,52.6,3.1,29.75,NNE,22,1.6,4.6,13,0.00,CLR,SKC,0.00,WeatherDisplay:10.37,2013-11-03 07:03:00,
2013-11-03 02:08:00,52.6,3.1,29.76,SE,135,0.2,2.3,13,0.00,CLR,SKC,0.00,WeatherDisplay:10.37,2013-11-03 07:08:00,
2013-11-03 02:13:00,52.6,3.1,29.76,NNW,337,2.1,9.2,13,0.00,CLR,SKC,0.00,WeatherDisplay:10.37,2013-11-03 07:13:00,
2013-11-03 02:18:00,52.6,3.1,29.76,ENE,67,1.5,3.5,13,0.00,CLR,SKC,0.00,WeatherDisplay:10.37,2013-11-03 07:18:00,
2013-11-03 02:23:00,53.6,5.5,29.76,NNE,22,0.3,4.6,14,0.00,CLR,SKC,0.00,WeatherDisplay:10.37,2013-11-03 07:23:00,
2013-11-03 02:28:00,52.6,3.1,29.76,NNW,337,1.0,5.8,13,0.00,CLR,SKC,0.00,WeatherDisplay:10.37,2013-11-03 07:28:00,
2013-11-03 02:33:00,52.6,3.1,29.76,NNE,22,1.7,6.9,13,0.00,CLR,SKC,0.00,WeatherDisplay:10.37,2013-11-03 07:33:00,
2013-11-03 02:38:00,52.6,3.1,29.77,NNE,22,2.3,9.0,13,0.00,CLR,SKC,0.00,WeatherDisplay:10.37,2013-11-03 07:38:00,
2013-11-03 02:43:00,52.6,3.1,29.77,WNW,292,0.9,4.6,13,0.00,CLR,SKC,0.00,WeatherDisplay:10.37,2013-11-03 07:43:00,
2013-11-03 02:48:00,52.6,3.1,29.78,ENE,67,2.3,6.0,13,0.00,CLR,SKC,0.00,WeatherDisplay:10.37,2013-11-03 07:48:00,
2013-11-03 02:53:00,52.6,3.1,29.78,West,270,0.9,3.5,13,0.00,CLR,SKC,0.00,WeatherDisplay:10.37,2013-11-03 07:53:00,
2013-11-03 02:58:00,52.6,3.1,29.77,NNW,337,3.9,9.2,13,0.00,CLR,SKC,0.00,WeatherDisplay:10.37,2013-11-03 07:58:00,
2013-11-03 03:03:00,53.6,5.5,29.77,ENE,67,3.3,8.1,14,0.00,CLR,SKC,0.00,WeatherDisplay:10.37,2013-11-03 08:03:00,
2013-11-03 03:08:00,52.6,3.1,29.78,NNE,22,4.8,11.5,13,0.00,CLR,SKC,0.00,WeatherDisplay:10.37,2013-11-03 08:08:00,
2013-11-03 03:13:00,52.6,3.1,29.78,WNW,292,1.7,6.9,13,0.00,CLR,SKC,0.00,WeatherDisplay:10.37,2013-11-03 08:13:00,
2013-11-03 03:18:00,53.6,5.5,29.79,ESE,112,0.9,3.5,14,0.00,CLR,SKC,0.00,WeatherDisplay:10.37,2013-11-03 08:18:00,
2013-11-03 03:23:00,52.6,3.1,29.79,NNE,22,3.3,7.0,13,0.00,CLR,SKC,0.00,WeatherDisplay:10.37,2013-11-03 08:23:00,
2013-11-03 03:28:00,52.6,3.1,29.80,ENE,67,1.3,3.5,13,0.00,CLR,SKC,0.00,WeatherDisplay:10.37,2013-11-03 08:28:00,
2013-11-03 03:33:00,52.6,3.1,29.80,SE,135,4.1,8.1,13,0.00,CLR,SKC,0.00,WeatherDisplay:10.37,2013-11-03 08:33:00,
2013-11-03 03:38:00,52.6,3.1,29.80,NNE,22,4.4,8.0,13,0.00,CLR,SKC,0.00,WeatherDisplay:10.37,2013-11-03 08:38:00,
2013-11-03 03:43:00,52.6,3.1,29.80,WNW,292,2.9,9.2,13,0.00,CLR,SKC,0.00,WeatherDisplay:10.37,2013-11-03 08:43:00,
2013-11-03 03:48:00,52.6,3.1,29.81,NNE,22,1.2,6.9,13,0.00,CLR,SKC,0.00,WeatherDisplay:10.37,2013-11-03 08:48:00,
2013-11-03 03:53:00,51.6,2.3,29.81,NE,45,2.7,11.0,13,0.00,CLR,SKC,0.00,WeatherDisplay:10.37,2013-11-03 08:53:00,
2013-11-03 03:58:00,51.6,2.3,29.81,North,360,3.7,5.8,13,0.00,CLR,SKC,0.00,WeatherDisplay:10.37,2013-11-03 08:58:00,
2013-11-03 04:03:00,51.6,2.3,29.81,NNE,22,3.3,6.0,13,0.00,CLR,SKC,0.00,WeatherDisplay:10.37,2013-11-03 09:03:00,
2013-11-03 04:08:00,51.6,2.3,29.81,NNE,22,4.8,15.0,13,0.00,CLR,SKC,0.00,WeatherDisplay:10.37,2013-11-03 09:08:00,
2013-11-03 04:13:00,51.6,2.3,29.81,East,90,7.6,12.7,13,0.00,CLR,SKC,0.00,WeatherDisplay:10.37,2013-11-03 09:13:00,
2013-11-03 04:18:00,51.6,2.3,29.82,South,180,5.9,10.4,13,0.00,CLR,SKC,0.00,WeatherDisplay:10.37,2013-11-03 09:18:00,
2013-11-03 04:23:00,51.6,2.3,29.82,NNE,22,1.7,3.5,13,0.00,CLR,SKC,0.00,WeatherDisplay:10.37,2013-11-03 09:23:00,
2013-11-03 04:28:00,51.6,2.3,29.83,SSE,157,0.5,5.8,13,0.00,CLR,SKC,0.00,WeatherDisplay:10.37,2013-11-03 09:28:00,
2013-11-03 04:33:00,51.6,2.3,29.83,East,90,1.7,10.4,13,0.00,CLR,SKC,0.00,WeatherDisplay:10.37,2013-11-03 09:33:00,
2013-11-03 04:38:00,51.6,2.3,29.84,East,90,1.7,8.1,13,0.00,CLR,SKC,0.00,WeatherDisplay:10.37,2013-11-03 09:38:00,
2013-11-03 04:43:00,50.6,1.5,29.84,East,90,4.4,10.4,13,0.00,CLR,SKC,0.00,WeatherDisplay:10.37,2013-11-03 09:43:00,
2013-11-03 04:48:00,50.6,1.5,29.83,NE,45,3.3,6.9,13,0.00,CLR,SKC,0.00,WeatherDisplay:10.37,2013-11-03 09:48:00,
2013-11-03 04:53:00,50.6,1.5,29.83,SE,135,2.0,5.8,13,0.00,CLR,SKC,0.00,WeatherDisplay:10.37,2013-11-03 09:53:00,
2013-11-03 04:58:00,50.6,3.1,29.83,SE,135,2.8,6.9,14,0.00,CLR,SKC,0.00,WeatherDisplay:10.37,2013-11-03 09:58:00,
2013-11-03 05:03:00,50.6,3.1,29.83,SSW,202,7.3,11.5,14,0.00,CLR,SKC,0.00,WeatherDisplay:10.37,2013-11-03 10:03:00,
2013-11-03 05:08:00,50.6,3.1,29.84,SSE,157,0.4,3.5,14,0.00,CLR,SKC,0.00,WeatherDisplay:10.37,2013-11-03 10:08:00,
2013-11-03 05:13:00,50.6,3.1,29.84,East,90,2.6,4.6,14,0.00,CLR,SKC,0.00,WeatherDisplay:10.37,2013-11-03 10:13:00,
2013-11-03 05:18:00,50.6,3.1,29.85,NE,45,2.1,11.5,14,0.00,CLR,SKC,0.00,WeatherDisplay:10.37,2013-11-03 10:18:00,
2013-11-03 05:23:00,50.6,3.1,29.85,NNE,22,1.7,10.4,14,0.00,CLR,SKC,0.00,WeatherDisplay:10.37,2013-11-03 10:23:00,
2013-11-03 05:28:00,50.6,3.1,29.86,ENE,67,2.7,8.1,14,0.00,CLR,SKC,0.00,WeatherDisplay:10.37,2013-11-03 10:28:00,
2013-11-03 05:33:00,50.6,3.1,29.86,NE,45,1.1,3.5,14,0.00,CLR,SKC,0.00,WeatherDisplay:10.37,2013-11-03 10:33:00,
2013-11-03 05:38:00,50.6,3.1,29.87,WNW,292,0.3,1.2,14,0.00,CLR,SKC,0.00,WeatherDisplay:10.37,2013-11-03 10:38:00,
2013-11-03 05:43:00,50.6,3.1,29.87,SE,135,3.2,9.2,14,0.00,CLR,SKC,0.00,WeatherDisplay:10.37,2013-11-03 10:43:00,
2013-11-03 05:48:00,50.6,3.1,29.87,SE,135,4.3,8.1,14,0.00,CLR,SKC,0.00,WeatherDisplay:10.37,2013-11-03 10:48:00,
2013-11-03 05:53:00,50.6,3.1,29.87,North,360,3.3,6.9,14,0.00,CLR,SKC,0.00,WeatherDisplay:10.37,2013-11-03 10:53:00,
2013-11-03 05:58:00,50.6,3.1,29.87,SSW,202,5.6,9.2,14,0.00,CLR,SKC,0.00,WeatherDisplay:10.37,2013-11-03 10:58:00,
2013-11-03 06:03:00,49.6,2.3,29.87,ESE,112,3.3,5.8,14,0.00,CLR,SKC,0.00,WeatherDisplay:10.37,2013-11-03 11:03:00,
2013-11-03 06:08:00,49.6,2.3,29.88,SW,225,0.0,3.5,14,0.00,CLR,SKC,0.00,WeatherDisplay:10.37,2013-11-03 11:08:00,
2013-11-03 06:13:00,49.6,2.3,29.88,SSW,202,1.3,4.0,14,0.00,CLR,SKC,0.00,WeatherDisplay:10.37,2013-11-03 11:13:00,
2013-11-03 06:18:00,49.6,2.3,29.89,ENE,67,1.0,3.5,14,0.00,CLR,SKC,0.00,WeatherDisplay:10.37,2013-11-03 11:18:00,
2013-11-03 06:23:00,49.6,2.3,29.89,NE,45,3.6,9.2,14,0.00,CLR,SKC,0.00,WeatherDisplay:10.37,2013-11-03 11:23:00,
2013-11-03 06:28:00,49.6,2.3,29.89,ENE,67,3.8,12.0,14,0.00,CLR,SKC,0.00,WeatherDisplay:10.37,2013-11-03 11:28:00,
2013-11-03 06:33:00,49.6,2.3,29.89,East,90,0.3,3.5,14,0.00,CLR,SKC,0.00,WeatherDisplay:10.37,2013-11-03 11:33:00,
2013-11-03 06:38:00,49.6,2.3,29.90,ENE,67,1.2,5.0,14,0.00,CLR,SKC,0.00,WeatherDisplay:10.37,2013-11-03 11:38:00,
2013-11-03 06:43:00,49.6,2.3,29.90,East,90,2.0,4.0,14,0.00,CLR,SKC,0.00,WeatherDisplay:10.37,2013-11-03 11:43:00,
2013-11-03 06:48:00,49.6,2.3,29.90,NNE,22,0.5,4.6,14,0.00,CLR,SKC,0.00,WeatherDisplay:10.37,2013-11-03 11:48:00,
2013-11-03 06:53:00,49.6,2.3,29.90,NE,45,2.9,8.1,14,0.00,CLR,SKC,0.00,WeatherDisplay:10.37,2013-11-03 11:53:00,
2013-11-03 06:58:00,49.6,2.3,29.91,ENE,67,0.9,10.0,14,0.00,CLR,SKC,0.00,WeatherDisplay:10.37,2013-11-03 11:58:00,
2013-11-03 07:03:00,49.6,2.3,29.91,NNE,22,0.3,5.8,14,0.00,CLR,SKC,0.00,WeatherDisplay:10.37,2013-11-03 12:03:00,
2013-11-03 07:08:00,49.6,2.3,29.92,NNE,22,2.1,4.6,14,0.00,CLR,SKC,0.00,WeatherDisplay:10.37,2013-11-03 12:08:00,
2013-11-03 07:13:00,49.6,2.3,29.92,ENE,67,4.2,10.0,14,0.00,CLR,SKC,0.00,WeatherDisplay:10.37,2013-11-03 12:13:00,
2013-11-03 07:18:00,49.6,2.3,29.93,North,360,0.6,6.0,14,0.00,CLR,SKC,0.00,WeatherDisplay:10.37,2013-11-03 12:18:00,
2013-11-03 07:23:00,49.6,2.3,29.93,ESE,112,2.7,4.0,14,0.00,CLR,SKC,0.00,WeatherDisplay:10.37,2013-11-03 12:23:00,
2013-11-03 07:28:00,49.6,2.3,29.93,ENE,67,5.0,10.4,14,0.00,CLR,SKC,0.00,WeatherDisplay:10.37,2013-11-03 12:28:00,
2013-11-03 07:33:00,49.6,2.3,29.93,NE,45,2.6,13.0,14,0.00,CLR,SKC,0.00,WeatherDisplay:10.37,2013-11-03 12:33:00,
2013-11-03 07:38:00,48.6,1.5,29.94,South,180,4.1,8.1,14,0.00,CLR,SKC,0.00,WeatherDisplay:10.37,2013-11-03 12:38:00,
2013-11-03 07:43:00,48.6,1.5,29.94,NE,45,0.1,10.0,14,0.00,CLR,SKC,0.00,WeatherDisplay:10.37,2013-11-03 12:43:00,
2013-11-03 07:48:00,48.6,1.5,29.95,NE,45,0.4,5.8,14,0.00,CLR,SKC,0.00,WeatherDisplay:10.37,2013-11-03 12:48:00,
2013-11-03 07:53:00,48.6,1.5,29.95,East,90,3.2,6.0,14,0.00,CLR,SKC,0.00,WeatherDisplay:10.37,2013-11-03 12:53:00,
2013-11-03 07:58:00,48.6,1.5,29.95,ENE,67,2.1,8.1,14,0.00,CLR,SKC,0.00,WeatherDisplay:10.37,2013-11-03 12:58:00,
2013-11-03 08:03:00,47.6,0.7,29.95,East,90,3.3,7.0,14,0.00,CLR,SKC,0.00,WeatherDisplay:10.37,2013-11-03 13:03:00,
2013-11-03 08:08:00,47.6,0.7,29.96,SSE,157,4.1,12.7,14,0.00,CLR,SKC,0.00,WeatherDisplay:10.37,2013-11-03 13:08:00,
2013-11-03 08:13:00,47.6,0.7,29.96,NNE,22,2.2,16.0,14,0.00,CLR,SKC,0.00,WeatherDisplay:10.37,2013-11-03 13:13:00,
2013-11-03 08:18:00,47.6,0.7,29.96,ENE,67,3.0,6.9,14,0.00,CLR,SKC,0.00,WeatherDisplay:10.37,2013-11-03 13:18:00,
2013-11-03 08:23:00,47.6,0.7,29.96,NW,315,2.9,11.5,14,0.00,CLR,SKC,0.00,WeatherDisplay:10.37,2013-11-03 13:23:00,
2013-11-03 08:28:00,47.6,0.7,29.97,NW,315,2.6,9.2,14,0.00,CLR,SKC,0.00,WeatherDisplay:10.37,2013-11-03 13:28:00,
2013-11-03 08:33:00,46.6,-0.1,29.97,WNW,292,3.3,8.1,14,0.00,CLR,SKC,0.00,WeatherDisplay:10.37,2013-11-03 13:33:00,
2013-11-03 08:38:00,46.6,-0.1,29.97,NNE,22,4.2,11.0,14,0.00,CLR,SKC,0.00,WeatherDisplay:10.37,2013-11-03 13:38:00,
2013-11-03 08:43:00,46.6,-0.1,29.97,ENE,67,4.8,10.0,14,0.00,CLR,SKC,0.00,WeatherDisplay:10.37,2013-11-03 13:43:00,
2013-11-03 08:48:00,46.6,-0.1,29.98,ESE,112,2.8,11.5,14,0.00,CLR,SKC,0.00,WeatherDisplay:10.37,2013-11-03 13:48:00,
2013-11-03 08:53:00,46.6,-0.1,29.98,SSW,202,1.3,8.1,14,0.00,CLR,SKC,0.00,WeatherDisplay:10.37,2013-11-03 13:53:00,
2013-11-03 08:58:00,46.6,-0.1,29.98,NNE,22,3.2,8.1,14,0.00,CLR,SKC,0.00,WeatherDisplay:10.37,2013-11-03 13:58:00,
2013-11-03 09:03:00,45.6,-0.9,29.98,ENE,67,3.2,9.2,14,0.00,CLR,SKC,0.00,WeatherDisplay:10.37,2013-11-03 14:03:00,
2013-11-03 09:08:00,45.6,-0.9,29.99,NW,315,3.8,9.2,14,0.00,CLR,SKC,0.00,WeatherDisplay:10.37,2013-11-03 14:08:00,
2013-11-03 09:13:00,45.6,-0.9,29.99,NE,45,0.7,4.0,14,0.00,CLR,SKC,0.00,WeatherDisplay:10.37,2013-11-03 14:13:00,
2013-11-03 09:18:00,45.6,-0.9,30.00,ESE,112,5.2,10.4,14,0.00,CLR,SKC,0.00,WeatherDisplay:10.37,2013-11-03 14:18:00,
2013-11-03 09:23:00,45.6,-0.9,30.00,SSW,202,6.3,10.4,14,0.00,CLR,SKC,0.00,WeatherDisplay:10.37,2013-11-03 14:23:00,
2013-11-03 09:28:00,45.6,0.5,30.00,SE,135,3.6,11.5,15,0.00,CLR,SKC,0.00,WeatherDisplay:10.37,2013-11-03 14:28:00,
2013-11-03 09:33:00,45.6,0.5,30.00,ENE,67,2.3,11.5,15,0.00,CLR,SKC,0.00,WeatherDisplay:10.37,2013-11-03 14:33:00,
2013-11-03 09:38:00,44.6,-1.7,30.01,ESE,112,5.0,9.2,14,0.00,CLR,SKC,0.00,WeatherDisplay:10.37,2013-11-03 14:38:00,
2013-11-03 09:43:00,44.6,-1.7,30.01,East,90,5.7,9.2,14,0.00,CLR,SKC,0.00,WeatherDisplay:10.37,2013-11-03 14:43:00,
2013-11-03 09:48:00,44.6,-1.7,30.01,NNE,22,3.1,13.8,14,0.00,CLR,SKC,0.00,WeatherDisplay:10.37,2013-11-03 14:48:00,
2013-11-03 09:53:00,44.6,-1.7,30.01,ENE,67,3.0,11.5,14,0.00,CLR,SKC,0.00,WeatherDisplay:10.37,2013-11-03 14:53:00,
2013-11-03 09:58:00,44.6,-1.7,30.02,WNW,292,6.5,11.5,14,0.00,CLR,SKC,0.00,WeatherDisplay:10.37,2013-11-03 14:58:00,
2013-11-03 10:03:00,44.6,-1.7,30.02,SSW,202,2.2,5.8,14,0.00,CLR,SKC,0.00,WeatherDisplay:10.37,2013-11-03 15:03:00,
2013-11-03 10:08:00,44.6,-1.7,30.03,NNE,22,1.9,6.9,14,0.00,CLR,SKC,0.00,WeatherDisplay:10.37,2013-11-03 15:08:00,
2013-11-03 10:13:00,43.6,-2.5,30.03,East,90,5.1,8.0,14,0.00,CLR,SKC,0.00,WeatherDisplay:10.37,2013-11-03 15:13:00,
2013-11-03 10:18:00,43.6,-2.5,30.04,NE,45,2.9,6.9,14,0.00,CLR,SKC,0.00,WeatherDisplay:10.37,2013-11-03 15:18:00,
2013-11-03 10:23:00,44.6,-1.7,30.04,East,90,5.1,6.9,14,0.00,CLR,SKC,0.00,WeatherDisplay:10.37,2013-11-03 15:23:00,
2013-11-03 10:28:00,43.6,-2.5,30.04,NNE,22,5.1,11.0,14,0.00,CLR,SKC,0.00,WeatherDisplay:10.37,2013-11-03 15:28:00,
2013-11-03 10:33:00,43.6,-2.5,30.04,East,90,4.2,10.4,14,0.00,CLR,SKC,0.00,WeatherDisplay:10.37,2013-11-03 15:33:00,
2013-11-03 10:38:00,43.6,-2.5,30.05,ENE,67,2.2,8.0,14,0.00,CLR,SKC,0.00,WeatherDisplay:10.37,2013-11-03 15:38:00,
2013-11-03 10:43:00,43.6,-1.1,30.05,East,90,3.2,5.8,15,0.00,CLR,SKC,0.00,WeatherDisplay:10.37,2013-11-03 15:43:00,
2013-11-03 10:48:00,43.6,-1.1,30.05,ESE,112,4.5,11.5,15,0.00,CLR,SKC,0.00,WeatherDisplay:10.37,2013-11-03 15:48:00,
2013-11-03 10:53:00,43.6,-1.1,30.05,ENE,67,2.2,7.0,15,0.00,CLR,SKC,0.00,WeatherDisplay:10.37,2013-11-03 15:53:00,
2013-11-03 10:58:00,43.6,-1.1,30.06,SSE,157,0.9,8.1,15,0.00,CLR,SKC,0.00,WeatherDisplay:10.37,2013-11-03 15:58:00,
2013-11-03 11:03:00,43.6,-1.1,30.06,NNW,337,5.0,7.0,15,0.00,CLR,SKC,0.00,WeatherDisplay:10.37,2013-11-03 16:03:00,
2013-11-03 11:08:00,43.6,-1.1,30.06,NNW,337,2.3,8.1,15,0.00,CLR,SKC,0.00,WeatherDisplay:10.37,2013-11-03 16:08:00,
2013-11-03 11:13:00,43.6,-1.1,30.06,North,360,6.1,11.5,15,0.00,CLR,SKC,0.00,WeatherDisplay:10.37,2013-11-03 16:13:00,
2013-11-03 11:18:00,43.6,-1.1,30.06,NNW,337,1.1,11.5,15,0.00,CLR,SKC,0.00,WeatherDisplay:10.37,2013-11-03 16:18:00,
2013-11-03 11:23:00,43.6,-1.1,30.06,NE,45,2.0,3.5,15,0.00,CLR,SKC,0.00,WeatherDisplay:10.37,2013-11-03 16:23:00,
2013-11-03 11:28:00,43.6,-1.1,30.07,ENE,67,3.8,11.5,15,0.00,CLR,SKC,0.00,WeatherDisplay:10.37,2013-11-03 16:28:00,
2013-11-03 11:33:00,43.6,-1.1,30.07,ESE,112,5.0,11.5,15,0.00,CLR,SKC,0.00,WeatherDisplay:10.37,2013-11-03 16:33:00,
2013-11-03 11:38:00,43.6,-1.1,30.07,North,360,3.7,8.1,15,0.00,CLR,SKC,0.00,WeatherDisplay:10.37,2013-11-03 16:38:00,
2013-11-03 11:43:00,43.6,-1.1,30.07,SE,135,3.2,6.9,15,0.00,CLR,SKC,0.00,WeatherDisplay:10.37,2013-11-03 16:43:00,
2013-11-03 11:48:00,43.6,-1.1,30.06,NE,45,1.1,4.6,15,0.00,CLR,SKC,0.00,WeatherDisplay:10.37,2013-11-03 16:48:00,
2013-11-03 11:53:00,43.6,-1.1,30.06,NE,45,4.8,10.4,15,0.00,CLR,SKC,0.00,WeatherDisplay:10.37,2013-11-03 16:53:00,
2013-11-03 11:58:00,43.6,-1.1,30.07,ENE,67,4.0,6.9,15,0.00,CLR,SKC,0.00,WeatherDisplay:10.37,2013-11-03 16:58:00,
2013-11-03 12:03:00,43.6,-1.1,30.07,NE,45,5.1,11.5,15,0.00,CLR,SKC,0.00,WeatherDisplay:10.37,2013-11-03 17:03:00,
2013-11-03 12:08:00,44.6,-0.3,30.07,ESE,112,3.6,5.8,15,0.00,CLR,SKC,0.00,WeatherDisplay:10.37,2013-11-03 17:08:00,
2013-11-03 12:13:00,43.6,-1.1,30.07,North,360,4.4,13.8,15,0.00,CLR,SKC,0.00,WeatherDisplay:10.37,2013-11-03 17:13:00,
2013-11-03 12:18:00,43.6,-1.1,30.07,East,90,2.6,6.9,15,0.00,CLR,SKC,0.00,WeatherDisplay:10.37,2013-11-03 17:18:00,
2013-11-03 12:23:00,44.6,-0.3,30.07,ENE,67,5.8,12.7,15,0.00,CLR,SKC,0.00,WeatherDisplay:10.37,2013-11-03 17:23:00,
2013-11-03 12:28:00,44.6,-0.3,30.07,SSE,157,6.5,13.8,15,0.00,CLR,SKC,0.00,WeatherDisplay:10.37,2013-11-03 17:28:00,
2013-11-03 12:33:00,44.6,-0.3,30.07,SSE,157,3.2,10.4,15,0.00,CLR,SKC,0.00,WeatherDisplay:10.37,2013-11-03 17:33:00,
2013-11-03 12:38:00,44.6,-0.3,30.07,East,90,0.8,5.8,15,0.00,CLR,SKC,0.00,WeatherDisplay:10.37,2013-11-03 17:38:00,
2013-11-03 12:43:00,44.6,-0.3,30.07,North,360,0.9,3.5,15,0.00,CLR,SKC,0.00,WeatherDisplay:10.37,2013-11-03 17:43:00,
2013-11-03 12:48:00,44.6,1.1,30.08,ENE,67,7.0,12.0,16,0.00,CLR,SKC,0.00,WeatherDisplay:10.37,2013-11-03 17:48:00,
2013-11-03 12:53:00,45.6,1.9,30.08,NNE,22,2.5,6.9,16,0.00,CLR,SKC,0.00,WeatherDisplay:10.37,2013-11-03 17:53:00,
2013-11-03 12:58:00,45.6,1.9,30.08,East,90,3.3,11.5,16,0.00,CLR,SKC,0.00,WeatherDisplay:10.37,2013-11-03 17:58:00,
2013-11-03 13:03:00,45.6,1.9,30.08,ESE,112,3.4,6.9,16,0.00,CLR,SKC,0.00,WeatherDisplay:10.37,2013-11-03 18:03:00,
2013-11-03 13:08:00,45.6,1.9,30.09,NE,45,4.5,9.2,16,0.00,CLR,SKC,0.00,WeatherDisplay:10.37,2013-11-03 18:08:00,
2013-11-03 13:13:00,44.6,-0.3,30.09,ESE,112,6.5,12.7,15,0.00,CLR,SKC,0.00,WeatherDisplay:10.37,2013-11-03 18:13:00,
2013-11-03 13:18:00,45.6,1.9,30.09,ENE,67,4.3,11.5,16,0.00,CLR,SKC,0.00,WeatherDisplay:10.37,2013-11-03 18:18:00,
2013-11-03 13:23:00,44.6,-0.3,30.09,NW,315,2.7,10.4,15,0.00,CLR,SKC,0.00,WeatherDisplay:10.37,2013-11-03 18:23:00,
2013-11-03 13:28:00,45.6,1.9,30.09,ESE,112,2.2,5.8,16,0.00,CLR,SKC,0.00,WeatherDisplay:10.37,2013-11-03 18:28:00,
2013-11-03 13:33:00,44.6,-0.3,30.09,SSW,202,4.7,11.5,15,0.00,CLR,SKC,0.00,WeatherDisplay:10.37,2013-11-03 18:33:00,
2013-11-03 13:38:00,44.6,1.1,30.10,ENE,67,2.5,4.6,16,0.00,CLR,SKC,0.00,WeatherDisplay:10.37,2013-11-03 18:38:00,
2013-11-03 13:43:00,44.6,1.1,30.10,East,90,2.3,6.9,16,0.00,CLR,SKC,0.00,WeatherDisplay:10.37,2013-11-03 18:43:00,
2013-11-03 13:48:00,44.6,1.1,30.10,ENE,67,2.6,6.9,16,0.00,CLR,SKC,0.00,WeatherDisplay:10.37,2013-11-03 18:48:00,
2013-11-03 13:53:00,44.6,1.1,30.10,WNW,292,3.6,11.5,16,0.00,CLR,SKC,0.00,WeatherDisplay:10.37,2013-11-03 18:53:00,
2013-11-03 13:58:00,44.6,1.1,30.11,ENE,67,5.2,10.4,16,0.00,CLR,SKC,0.00,WeatherDisplay:10.37,2013-11-03 18:58:00,
2013-11-03 14:03:00,44.6,1.1,30.11,East,90,1.4,3.5,16,0.00,CLR,SKC,0.00,WeatherDisplay:10.37,2013-11-03 19:03:00,
2013-11-03 14:08:00,44.6,1.1,30.11,ENE,67,4.9,8.1,16,0.00,CLR,SKC,0.00,WeatherDisplay:10.37,2013-11-03 19:08:00,
2013-11-03 14:13:00,45.6,1.9,30.11,WSW,247,1.6,4.6,16,0.00,CLR,SKC,0.00,WeatherDisplay:10.37,2013-11-03 19:13:00,
2013-11-03 14:18:00,44.6,1.1,30.12,ESE,112,0.9,3.5,16,0.00,CLR,SKC,0.00,WeatherDisplay:10.37,2013-11-03 19:18:00,
2013-11-03 14:23:00,44.6,1.1,30.12,NNW,337,5.5,10.4,16,0.00,CLR,SKC,0.00,WeatherDisplay:10.37,2013-11-03 19:23:00,
2013-11-03 14:28:00,44.6,1.1,30.12,ESE,112,1.0,10.4,16,0.00,CLR,SKC,0.00,WeatherDisplay:10.37,2013-11-03 19:28:00,
2013-11-03 14:33:00,44.6,1.1,30.12,ENE,67,4.9,11.5,16,0.00,CLR,SKC,0.00,WeatherDisplay:10.37,2013-11-03 19:33:00,
2013-11-03 14:38:00,44.6,1.1,30.12,NNE,22,1.1,5.8,16,0.00,CLR,SKC,0.00,WeatherDisplay:10.37,2013-11-03 19:38:00,
2013-11-03 14:43:00,44.6,1.1,30.12,NE,45,5.6,16.1,16,0.00,CLR,SKC,0.00,WeatherDisplay:10.37,2013-11-03 19:43:00,
2013-11-03 14:48:00,44.6,1.1,30.12,SSE,157,1.0,4.6,16,0.00,CLR,SKC,0.00,WeatherDisplay:10.37,2013-11-03 19:48:00,
2013-11-03 14:53:00,44.6,1.1,30.12,ENE,67,3.6,6.0,16,0.00,CLR,SKC,0.00,WeatherDisplay:10.37,2013-11-03 19:53:00,
2013-11-03 14:58:00,44.6,1.1,30.13,ENE,67,2.0,6.9,16,0.00,CLR,SKC,0.00,WeatherDisplay:10.37,2013-11-03 19:58:00,
2013-11-03 15:03:00,43.6,0.3,30.13,ENE,67,6.0,12.7,16,0.00,CLR,SKC,0.00,WeatherDisplay:10.37,2013-11-03 20:03:00,
2013-11-03 15:08:00,43.6,0.3,30.14,NNE,22,1.8,3.5,16,0.00,CLR,SKC,0.00,WeatherDisplay:10.37,2013-11-03 20:08:00,
2013-11-03 15:13:00,43.6,0.3,30.14,ENE,67,3.4,8.0,16,0.00,CLR,SKC,0.00,WeatherDisplay:10.37,2013-11-03 20:13:00,
2013-11-03 15:18:00,44.6,1.1,30.15,ENE,67,5.8,11.5,16,0.00,CLR,SKC,0.00,WeatherDisplay:10.37,2013-11-03 20:18:00,
2013-11-03 15:23:00,43.6,0.3,30.15,ESE,112,0.4,5.8,16,0.00,CLR,SKC,0.00,WeatherDisplay:10.37,2013-11-03 20:23:00,
2013-11-03 15:28:00,43.6,0.3,30.15,WSW,247,2.3,11.5,16,0.00,CLR,SKC,0.00,WeatherDisplay:10.37,2013-11-03 20:28:00,
2013-11-03 15:33:00,43.6,0.3,30.15,ESE,112,2.5,8.1,16,0.00,CLR,SKC,0.00,WeatherDisplay:10.37,2013-11-03 20:33:00,
2013-11-03 15:38:00,42.6,-0.5,30.15,NNE,22,4.7,6.9,16,0.00,CLR,SKC,0.00,WeatherDisplay:10.37,2013-11-03 20:38:00,
2013-11-03 15:43:00,42.6,-0.5,30.15,ENE,67,5.7,10.4,16,0.00,CLR,SKC,0.00,WeatherDisplay:10.37,2013-11-03 20:43:00,
2013-11-03 15:48:00,42.6,-0.5,30.15,ENE,67,3.5,10.4,16,0.00,CLR,SKC,0.00,WeatherDisplay:10.37,2013-11-03 20:48:00,
2013-11-03 15:53:00,42.6,-0.5,30.15,ESE,112,0.9,3.5,16,0.00,CLR,SKC,0.00,WeatherDisplay:10.37,2013-11-03 20:53:00,
2013-11-03 15:58:00,42.6,-0.5,30.15,East,90,0.6,3.5,16,0.00,CLR,SKC,0.00,WeatherDisplay:10.37,2013-11-03 20:58:00,
2013-11-03 16:03:00,42.6,-0.5,30.15,East,90,1.1,3.5,16,0.00,CLR,SKC,0.00,WeatherDisplay:10.37,2013-11-03 21:03:00,
2013-11-03 16:08:00,42.6,-0.5,30.16,NNE,22,0.3,4.0,16,0.00,CLR,SKC,0.00,WeatherDisplay:10.37,2013-11-03 21:08:00,
2013-11-03 16:13:00,42.6,-0.5,30.16,NNW,337,5.3,15.0,16,0.00,CLR,SKC,0.00,WeatherDisplay:10.37,2013-11-03 21:13:00,
2013-11-03 16:18:00,41.6,-1.3,30.16,SSW,202,1.0,3.5,16,0.00,CLR,SKC,0.00,WeatherDisplay:10.37,2013-11-03 21:18:00,
2013-11-03 16:23:00,41.6,-1.3,30.16,NNE,22,1.8,6.9,16,0.00,CLR,SKC,0.00,WeatherDisplay:10.37,2013-11-03 21:23:00,
2013-11-03 16:28:00,41.6,-1.3,30.17,NNE,22,0.2,5.8,16,0.00,CLR,SKC,0.00,WeatherDisplay:10.37,2013-11-03 21:28:00,
2013-11-03 16:33:00,40.6,-2.2,30.17,NNE,22,1.5,4.6,16,0.00,CLR,SKC,0.00,WeatherDisplay:10.37,2013-11-03 21:33:00,
2013-11-03 16:38:00,41.6,-1.3,30.18,ENE,67,2.6,8.0,16,0.00,CLR,SKC,0.00,WeatherDisplay:10.37,2013-11-03 21:38:00,
2013-11-03 16:43:00,41.6,-1.3,30.18,NNE,22,2.0,4.0,16,0.00,CLR,SKC,0.00,WeatherDisplay:10.37,2013-11-03 21:43:00,
2013-11-03 16:48:00,40.6,-2.2,30.18,West,270,0.3,7.0,16,0.00,CLR,SKC,0.00,WeatherDisplay:10.37,2013-11-03 21:48:00,
2013-11-03 16:53:00,40.6,-2.2,30.18,NNE,22,0.3,3.5,16,0.00,CLR,SKC,0.00,WeatherDisplay:10.37,2013-11-03 21:53:00,
2013-11-03 16:58:00,40.6,-2.2,30.19,NNE,22,1.0,3.5,16,0.00,CLR,SKC,0.00,WeatherDisplay:10.37,2013-11-03 21:58:00,
2013-11-03 17:03:00,40.6,-2.2,30.19,SSE,157,0.0,0.0,16,0.00,CLR,SKC,0.00,WeatherDisplay:10.37,2013-11-03 22:03:00,
2013-11-03 17:08:00,40.6,-2.2,30.19,WSW,247,1.3,3.5,16,0.00,CLR,SKC,0.00,WeatherDisplay:10.37,2013-11-03 22:08:00,
2013-11-03 17:13:00,40.6,-2.2,30.19,NE,45,2.7,6.9,16,0.00,CLR,SKC,0.00,WeatherDisplay:10.37,2013-11-03 22:13:00,
2013-11-03 17:18:00,41.6,-1.3,30.20,East,90,0.2,2.3,16,0.00,CLR,SKC,0.00,WeatherDisplay:10.37,2013-11-03 22:18:00,
2013-11-03 17:23:00,40.6,-2.2,30.20,NNE,22,2.5,6.0,16,0.00,CLR,SKC,0.00,WeatherDisplay:10.37,2013-11-03 22:23:00,
2013-11-03 17:28:00,40.6,-2.2,30.21,NNE,22,0.9,4.6,16,0.00,CLR,SKC,0.00,WeatherDisplay:10.37,2013-11-03 22:28:00,
2013-11-03 17:33:00,41.6,-1.3,30.21,ESE,112,4.7,11.5,16,0.00,CLR,SKC,0.00,WeatherDisplay:10.37,2013-11-03 22:33:00,
2013-11-03 17:38:00,41.6,-1.3,30.21,NNE,22,2.8,4.6,16,0.00,CLR,SKC,0.00,WeatherDisplay:10.37,2013-11-03 22:38:00,
2013-11-03 17:43:00,40.6,-0.9,30.21,ENE,67,0.8,5.0,17,0.00,CLR,SKC,0.00,WeatherDisplay:10.37,2013-11-03 22:43:00,
2013-11-03 17:48:00,40.6,-0.9,30.22,NNE,22,1.1,3.5,17,0.00,CLR,SKC,0.00,WeatherDisplay:10.37,2013-11-03 22:48:00,
2013-11-03 17:53:00,40.6,-0.9,30.22,NNE,22,0.0,2.0,17,0.00,CLR,SKC,0.00,WeatherDisplay:10.37,2013-11-03 22:53:00,
2013-11-03 17:58:00,40.6,-0.9,30.23,NNE,22,1.4,3.5,17,0.00,CLR,SKC,0.00,WeatherDisplay:10.37,2013-11-03 22:58:00,
2013-11-03 18:03:00,40.6,-0.9,30.23,East,90,1.6,3.5,17,0.00,CLR,SKC,0.00,WeatherDisplay:10.37,2013-11-03 23:03:00,
2013-11-03 18:08:00,40.6,-0.9,30.23,ENE,67,0.1,3.5,17,0.00,CLR,SKC,0.00,WeatherDisplay:10.37,2013-11-03 23:08:00,
2013-11-03 18:13:00,40.6,-0.9,30.23,NNE,22,0.3,2.3,17,0.00,CLR,SKC,0.00,WeatherDisplay:10.37,2013-11-03 23:13:00,
2013-11-03 18:18:00,39.6,-1.7,30.23,North,360,1.1,5.8,17,0.00,CLR,SKC,0.00,WeatherDisplay:10.37,2013-11-03 23:18:00,
2013-11-03 18:23:00,39.6,-1.7,30.23,ENE,67,0.0,0.0,17,0.00,CLR,SKC,0.00,WeatherDisplay:10.37,2013-11-03 23:23:00,
2013-11-03 18:28:00,39.6,-1.7,30.24,NE,45,0.2,2.3,17,0.00,CLR,SKC,0.00,WeatherDisplay:10.37,2013-11-03 23:28:00,
2013-11-03 18:33:00,39.6,-1.7,30.24,NNE,22,0.1,1.2,17,0.00,CLR,SKC,0.00,WeatherDisplay:10.37,2013-11-03 23:33:00,
2013-11-03 18:38:00,39.6,-1.7,30.24,ESE,112,0.0,0.0,17,0.00,CLR,SKC,0.00,WeatherDisplay:10.37,2013-11-03 23:38:00,
2013-11-03 18:43:00,39.6,-1.7,30.24,NNE,22,0.0,1.2,17,0.00,CLR,SKC,0.00,WeatherDisplay:10.37,2013-11-03 23:43:00,
2013-11-03 18:48:00,39.6,-1.7,30.24,NNE,22,0.0,0.0,17,0.00,CLR,SKC,0.00,WeatherDisplay:10.37,2013-11-03 23:48:00,
2013-11-03 18:53:00,39.6,-1.7,30.24,NE,45,2.8,5.0,17,0.00,CLR,SKC,0.00,WeatherDisplay:10.37,2013-11-03 23:53:00,
2013-11-03 18:58:00,39.6,-1.7,30.25,North,360,0.0,0.0,17,0.00,CLR,SKC,0.00,WeatherDisplay:10.37,2013-11-03 23:58:00,
2013-11-03 19:03:00,39.6,-1.7,30.25,ESE,112,0.6,2.3,17,0.00,CLR,SKC,0.00,WeatherDisplay:10.37,2013-11-04 00:03:00,
2013-11-03 19:08:00,39.6,-1.7,30.25,NNE,22,0.5,1.2,17,0.00,CLR,SKC,0.00,WeatherDisplay:10.37,2013-11-04 00:08:00,
2013-11-03 19:13:00,40.6,-0.9,30.25,NE,45,0.7,3.5,17,0.00,CLR,SKC,0.00,WeatherDisplay:10.37,2013-11-04 00:13:00,
2013-11-03 19:18:00,40.6,-0.9,30.25,North,360,1.6,4.6,17,0.00,CLR,SKC,0.00,WeatherDisplay:10.37,2013-11-04 00:18:00,
2013-11-03 19:23:00,40.6,-0.9,30.25,ESE,112,0.1,1.2,17,0.00,CLR,SKC,0.00,WeatherDisplay:10.37,2013-11-04 00:23:00,
2013-11-03 19:28:00,40.6,-0.9,30.25,NNE,22,0.4,2.3,17,0.00,CLR,SKC,0.00,WeatherDisplay:10.37,2013-11-04 00:28:00,
2013-11-03 19:33:00,40.6,-0.9,30.25,NNE,22,0.9,4.6,17,0.00,CLR,SKC,0.00,WeatherDisplay:10.37,2013-11-04 00:33:00,
2013-11-03 19:38:00,40.6,-0.9,30.25,NNW,337,0.0,0.0,17,0.00,CLR,SKC,0.00,WeatherDisplay:10.37,2013-11-04 00:38:00,
2013-11-03 19:43:00,40.6,-0.9,30.25,ENE,67,0.0,1.2,17,0.00,CLR,SKC,0.00,WeatherDisplay:10.37,2013-11-04 00:43:00,
2013-11-03 19:48:00,40.6,-0.9,30.26,ESE,112,0.0,0.0,17,0.00,CLR,SKC,0.00,WeatherDisplay:10.37,2013-11-04 00:48:00,
2013-11-03 19:53:00,40.6,-0.9,30.26,SSE,157,0.3,3.5,17,0.00,CLR,SKC,0.00,WeatherDisplay:10.37,2013-11-04 00:53:00,
2013-11-03 19:58:00,40.6,-0.9,30.25,ENE,67,0.0,0.0,17,0.00,CLR,SKC,0.00,WeatherDisplay:10.37,2013-11-04 00:58:00,
2013-11-03 20:03:00,41.6,-0.1,30.25,NNE,22,1.2,3.5,17,0.00,CLR,SKC,0.00,WeatherDisplay:10.37,2013-11-04 01:03:00,
2013-11-03 20:08:00,40.6,-0.9,30.25,ENE,67,1.6,6.9,17,0.00,CLR,SKC,0.00,WeatherDisplay:10.37,2013-11-04 01:08:00,
2013-11-03 20:13:00,41.6,-0.1,30.25,NNW,337,1.0,3.5,17,0.00,CLR,SKC,0.00,WeatherDisplay:10.37,2013-11-04 01:13:00,
2013-11-03 20:18:00,41.6,-0.1,30.26,SSE,157,0.0,0.0,17,0.00,CLR,SKC,0.00,WeatherDisplay:10.37,2013-11-04 01:18:00,
2013-11-03 20:23:00,41.6,-0.1,30.26,NNW,337,1.7,5.8,17,0.00,CLR,SKC,0.00,WeatherDisplay:10.37,2013-11-04 01:23:00,
2013-11-03 20:28:00,42.6,0.8,30.26,NE,45,0.0,3.5,17,0.00,CLR,SKC,0.00,WeatherDisplay:10.37,2013-11-04 01:28:00,
2013-11-03 20:33:00,41.6,-0.1,30.26,North,360,0.0,1.2,17,0.00,CLR,SKC,0.00,WeatherDisplay:10.37,2013-11-04 01:33:00,
2013-11-03 20:38:00,42.6,0.8,30.27,ENE,67,0.0,2.3,17,0.00,CLR,SKC,0.00,WeatherDisplay:10.37,2013-11-04 01:38:00,
2013-11-03 20:43:00,42.6,0.8,30.27,NE,45,2.7,5.0,17,0.00,CLR,SKC,0.00,WeatherDisplay:10.37,2013-11-04 01:43:00,
2013-11-03 20:48:00,42.6,0.8,30.27,ENE,67,0.6,4.6,17,0.00,CLR,SKC,0.00,WeatherDisplay:10.37,2013-11-04 01:48:00,
2013-11-03 20:53:00,42.6,0.8,30.27,NE,45,3.5,6.9,17,0.00,CLR,SKC,0.00,WeatherDisplay:10.37,2013-11-04 01:53:00,
2013-11-03 20:58:00,42.6,0.8,30.27,SSE,157,2.6,9.2,17,0.00,CLR,SKC,0.00,WeatherDisplay:10.37,2013-11-04 01:58:00,
2013-11-03 21:03:00,42.6,0.8,30.27,ENE,67,0.5,3.5,17,0.00,CLR,SKC,0.00,WeatherDisplay:10.37,2013-11-04 02:03:00,
2013-11-03 21:08:00,42.6,0.8,30.28,NNW,337,3.2,10.4,17,0.00,CLR,SKC,0.00,WeatherDisplay:10.37,2013-11-04 02:08:00,
2013-11-03 21:13:00,42.6,0.8,30.28,East,90,0.9,8.0,17,0.00,CLR,SKC,0.00,WeatherDisplay:10.37,2013-11-04 02:13:00,
2013-11-03 21:18:00,42.6,0.8,30.28,NNE,22,2.4,5.8,17,0.00,CLR,SKC,0.00,WeatherDisplay:10.37,2013-11-04 02:18:00,
2013-11-03 21:23:00,41.6,-0.1,30.28,ENE,67,1.3,6.9,17,0.00,CLR,SKC,0.00,WeatherDisplay:10.37,2013-11-04 02:23:00,
2013-11-03 21:28:00,42.6,0.8,30.29,ESE,112,0.9,4.6,17,0.00,CLR,SKC,0.00,WeatherDisplay:10.37,2013-11-04 02:28:00,
2013-11-03 21:33:00,41.6,-0.1,30.29,ENE,67,1.8,3.5,17,0.00,CLR,SKC,0.00,WeatherDisplay:10.37,2013-11-04 02:33:00,
2013-11-03 21:38:00,41.6,-0.1,30.29,NE,45,0.0,0.0,17,0.00,CLR,SKC,0.00,WeatherDisplay:10.37,2013-11-04 02:38:00,
2013-11-03 21:43:00,41.6,-0.1,30.29,NE,45,0.0,4.6,17,0.00,CLR,SKC,0.00,WeatherDisplay:10.37,2013-11-04 02:43:00,
2013-11-03 21:48:00,42.6,0.8,30.29,NNE,22,0.4,5.8,17,0.00,CLR,SKC,0.00,WeatherDisplay:10.37,2013-11-04 02:48:00,
2013-11-03 21:53:00,41.6,-0.1,30.29,NNE,22,0.7,2.3,17,0.00,CLR,SKC,0.00,WeatherDisplay:10.37,2013-11-04 02:53:00,
2013-11-03 21:58:00,41.6,-0.1,30.29,ENE,67,0.0,0.0,17,0.00,CLR,SKC,0.00,WeatherDisplay:10.37,2013-11-04 02:58:00,
2013-11-03 22:03:00,41.6,-0.1,30.29,North,360,0.0,2.3,17,0.00,CLR,SKC,0.00,WeatherDisplay:10.37,2013-11-04 03:03:00,
2013-11-03 22:08:00,42.6,0.8,30.30,SSE,157,4.2,13.8,17,0.00,CLR,SKC,0.00,WeatherDisplay:10.37,2013-11-04 03:08:00,
2013-11-03 22:13:00,42.6,0.8,30.30,SSE,157,3.3,5.8,17,0.00,CLR,SKC,0.00,WeatherDisplay:10.37,2013-11-04 03:13:00,
2013-11-03 22:18:00,42.6,0.8,30.30,NNE,22,4.3,5.8,17,0.00,CLR,SKC,0.00,WeatherDisplay:10.37,2013-11-04 03:18:00,
2013-11-03 22:23:00,43.6,1.6,30.30,ENE,67,6.7,10.4,17,0.00,CLR,SKC,0.00,WeatherDisplay:10.37,2013-11-04 03:23:00,
2013-11-03 22:28:00,42.6,0.8,30.30,West,270,0.7,4.6,17,0.00,CLR,SKC,0.00,WeatherDisplay:10.37,2013-11-04 03:28:00,
2013-11-03 22:33:00,42.6,0.8,30.30,NE,45,6.4,10.0,17,0.00,CLR,SKC,0.00,WeatherDisplay:10.37,2013-11-04 03:33:00,
2013-11-03 22:38:00,42.6,0.8,30.31,NNE,22,2.9,9.2,17,0.00,CLR,SKC,0.00,WeatherDisplay:10.37,2013-11-04 03:38:00,
2013-11-03 22:43:00,42.6,0.8,30.31,NNW,337,1.3,5.8,17,0.00,CLR,SKC,0.00,WeatherDisplay:10.37,2013-11-04 03:43:00,
2013-11-03 22:48:00,42.6,0.8,30.31,East,90,5.5,10.4,17,0.00,CLR,SKC,0.00,WeatherDisplay:10.37,2013-11-04 03:48:00,
2013-11-03 22:53:00,42.6,0.8,30.31,NW,315,0.9,3.5,17,0.00,CLR,SKC,0.00,WeatherDisplay:10.37,2013-11-04 03:53:00,
2013-11-03 22:58:00,42.6,0.8,30.31,ESE,112,2.6,6.9,17,0.00,CLR,SKC,0.00,WeatherDisplay:10.37,2013-11-04 03:58:00,
2013-11-03 23:03:00,42.6,0.8,30.31,NNE,22,2.1,10.0,17,0.00,CLR,SKC,0.00,WeatherDisplay:10.37,2013-11-04 04:03:00,
2013-11-03 23:08:00,42.6,0.8,30.32,East,90,2.0,11.5,17,0.00,CLR,SKC,0.00,WeatherDisplay:10.37,2013-11-04 04:08:00,
2013-11-03 23:13:00,42.6,0.8,30.32,SE,135,2.1,6.0,17,0.00,CLR,SKC,0.00,WeatherDisplay:10.37,2013-11-04 04:13:00,
2013-11-03 23:18:00,42.6,0.8,30.33,SE,135,1.6,8.1,17,0.00,CLR,SKC,0.00,WeatherDisplay:10.37,2013-11-04 04:18:00,
2013-11-03 23:23:00,42.6,0.8,30.33,ESE,112,1.4,9.2,17,0.00,CLR,SKC,0.00,WeatherDisplay:10.37,2013-11-04 04:23:00,
2013-11-03 23:28:00,41.6,-0.1,30.33,WNW,292,0.6,3.5,17,0.00,CLR,SKC,0.00,WeatherDisplay:10.37,2013-11-04 04:28:00,
2013-11-03 23:33:00,41.6,-0.1,30.33,NNW,337,4.6,10.4,17,0.00,CLR,SKC,0.00,WeatherDisplay:10.37,2013-11-04 04:33:00,
2013-11-03 23:38:00,41.6,-0.1,30.33,ENE,67,3.4,6.9,17,0.00,CLR,SKC,0.00,WeatherDisplay:10.37,2013-11-04 04:38:00,
2013-11-03 23:43:00,41.6,-0.1,30.33,ENE,67,1.9,4.6,17,0.00,CLR,SKC,0.00,WeatherDisplay:10.37,2013-11-04 04:43:00,
2013-11-03 23:48:00,41.6,-0.1,30.33,NNE,22,3.5,5.8,17,0.00,CLR,SKC,0.00,WeatherDisplay:10.37,2013-11-04 04:48:00,
2013-11-03 23:53:00,41.6,-0.1,30.33,ESE,112,4.1,10.4,17,0.00,CLR,SKC,0.00,WeatherDisplay:10.37,2013-11-04 04:53:00,
2013-11-03 23:58:00,41.6,-0.1,30.34,NE,45,4.7,8.1,17,0.00,CLR,SKC,0.00,WeatherDisplay:10.37,2013-11-04 04:58:00,